sensor_id;sensor_type;location;lat;lon;timestamp;temperature;humidity
38726;DHT22;24474;48.906;8.808;2022-08-07T00:01:35;15.80;76.70
38726;DHT22;24474;48.906;8.808;2022-08-07T00:04:00;15.70;75.90
38726;DHT22;24474;48.906;8.808;2022-08-07T00:06:26;15.70;75.30
38726;DHT22;24474;48.906;8.808;2022-08-07T00:08:52;15.70;76.10
38726;DHT22;24474;48.906;8.808;2022-08-07T00:11:19;15.70;75.40
38726;DHT22;24474;48.906;8.808;2022-08-07T00:13:45;15.60;75.60
38726;DHT22;24474;48.906;8.808;2022-08-07T00:19:16;15.60;76.80
38726;DHT22;24474;48.906;8.808;2022-08-07T00:21:42;15.60;77.40
38726;DHT22;24474;48.906;8.808;2022-08-07T00:24:09;15.50;77.70
38726;DHT22;24474;48.906;8.808;2022-08-07T00:26:36;15.40;77.30
38726;DHT22;24474;48.906;8.808;2022-08-07T00:29:02;15.40;77.00
38726;DHT22;24474;48.906;8.808;2022-08-07T00:31:31;15.40;77.30
38726;DHT22;24474;48.906;8.808;2022-08-07T00:33:58;15.40;77.90
38726;DHT22;24474;48.906;8.808;2022-08-07T00:36:23;15.30;78.60
38726;DHT22;24474;48.906;8.808;2022-08-07T00:38:50;15.30;78.90
38726;DHT22;24474;48.906;8.808;2022-08-07T00:41:24;15.30;79.00
38726;DHT22;24474;48.906;8.808;2022-08-07T00:43:52;15.20;78.60
38726;DHT22;24474;48.906;8.808;2022-08-07T00:46:17;15.20;78.90
38726;DHT22;24474;48.906;8.808;2022-08-07T00:48:43;15.20;79.10
38726;DHT22;24474;48.906;8.808;2022-08-07T00:51:11;15.10;79.40
38726;DHT22;24474;48.906;8.808;2022-08-07T00:53:36;15.10;79.50
38726;DHT22;24474;48.906;8.808;2022-08-07T00:56:03;15.10;79.90
38726;DHT22;24474;48.906;8.808;2022-08-07T00:58:30;15.00;80.20
38726;DHT22;24474;48.906;8.808;2022-08-07T01:00:57;15.00;79.30
38726;DHT22;24474;48.906;8.808;2022-08-07T01:03:24;15.00;79.70
38726;DHT22;24474;48.906;8.808;2022-08-07T01:05:54;15.00;80.30
38726;DHT22;24474;48.906;8.808;2022-08-07T01:08:22;14.90;80.40
38726;DHT22;24474;48.906;8.808;2022-08-07T01:10:48;14.80;80.40
38726;DHT22;24474;48.906;8.808;2022-08-07T01:13:14;14.80;80.70
38726;DHT22;24474;48.906;8.808;2022-08-07T01:15:41;14.60;80.80
38726;DHT22;24474;48.906;8.808;2022-08-07T01:18:08;14.70;80.80
38726;DHT22;24474;48.906;8.808;2022-08-07T01:20:42;14.70;80.90
38726;DHT22;24474;48.906;8.808;2022-08-07T01:23:10;14.60;80.60
38726;DHT22;24474;48.906;8.808;2022-08-07T01:25:37;14.70;80.90
38726;DHT22;24474;48.906;8.808;2022-08-07T01:28:05;14.70;80.60
38726;DHT22;24474;48.906;8.808;2022-08-07T01:30:32;14.60;78.90
38726;DHT22;24474;48.906;8.808;2022-08-07T01:32:58;14.60;79.90
38726;DHT22;24474;48.906;8.808;2022-08-07T01:35:25;14.60;80.30
38726;DHT22;24474;48.906;8.808;2022-08-07T01:37:51;14.60;81.00
38726;DHT22;24474;48.906;8.808;2022-08-07T01:40:19;14.50;80.50
38726;DHT22;24474;48.906;8.808;2022-08-07T01:42:47;14.60;78.40
38726;DHT22;24474;48.906;8.808;2022-08-07T01:45:14;14.60;78.30
38726;DHT22;24474;48.906;8.808;2022-08-07T01:47:42;14.70;77.90
38726;DHT22;24474;48.906;8.808;2022-08-07T01:50:08;14.80;77.80
38726;DHT22;24474;48.906;8.808;2022-08-07T01:52:35;14.70;77.70
38726;DHT22;24474;48.906;8.808;2022-08-07T01:55:08;14.70;77.90
38726;DHT22;24474;48.906;8.808;2022-08-07T01:57:38;14.70;77.80
38726;DHT22;24474;48.906;8.808;2022-08-07T02:00:09;14.70;77.80
38726;DHT22;24474;48.906;8.808;2022-08-07T02:02:59;14.70;77.80
38726;DHT22;24474;48.906;8.808;2022-08-07T02:05:36;14.70;78.10
38726;DHT22;24474;48.906;8.808;2022-08-07T02:08:10;14.70;78.20
38726;DHT22;24474;48.906;8.808;2022-08-07T02:10:38;14.70;78.20
38726;DHT22;24474;48.906;8.808;2022-08-07T02:13:04;14.70;78.80
38726;DHT22;24474;48.906;8.808;2022-08-07T02:15:31;14.60;78.20
38726;DHT22;24474;48.906;8.808;2022-08-07T02:17:59;14.60;78.20
38726;DHT22;24474;48.906;8.808;2022-08-07T02:20:29;14.60;78.40
38726;DHT22;24474;48.906;8.808;2022-08-07T02:23:00;14.60;78.40
38726;DHT22;24474;48.906;8.808;2022-08-07T02:25:28;14.60;78.50
38726;DHT22;24474;48.906;8.808;2022-08-07T02:27:57;14.60;78.50
38726;DHT22;24474;48.906;8.808;2022-08-07T02:30:26;14.50;78.50
38726;DHT22;24474;48.906;8.808;2022-08-07T02:32:53;14.50;78.80
38726;DHT22;24474;48.906;8.808;2022-08-07T02:35:19;14.50;78.80
38726;DHT22;24474;48.906;8.808;2022-08-07T02:37:45;14.50;78.80
38726;DHT22;24474;48.906;8.808;2022-08-07T02:40:12;14.50;78.90
38726;DHT22;24474;48.906;8.808;2022-08-07T02:42:38;14.50;79.30
38726;DHT22;24474;48.906;8.808;2022-08-07T02:45:06;14.50;79.40
38726;DHT22;24474;48.906;8.808;2022-08-07T02:47:33;14.50;79.40
38726;DHT22;24474;48.906;8.808;2022-08-07T02:50:00;14.40;79.60
38726;DHT22;24474;48.906;8.808;2022-08-07T02:52:34;14.40;79.70
38726;DHT22;24474;48.906;8.808;2022-08-07T02:55:06;14.40;80.00
38726;DHT22;24474;48.906;8.808;2022-08-07T02:57:36;14.40;80.10
38726;DHT22;24474;48.906;8.808;2022-08-07T03:00:04;14.40;80.10
38726;DHT22;24474;48.906;8.808;2022-08-07T03:02:30;14.40;80.20
38726;DHT22;24474;48.906;8.808;2022-08-07T03:04:58;14.40;80.50
38726;DHT22;24474;48.906;8.808;2022-08-07T03:07:28;14.30;80.50
38726;DHT22;24474;48.906;8.808;2022-08-07T03:09:55;14.30;80.70
38726;DHT22;24474;48.906;8.808;2022-08-07T03:12:21;14.20;80.90
38726;DHT22;24474;48.906;8.808;2022-08-07T03:14:49;14.30;81.30
38726;DHT22;24474;48.906;8.808;2022-08-07T03:17:16;14.30;81.30
38726;DHT22;24474;48.906;8.808;2022-08-07T03:19:41;14.30;81.50
38726;DHT22;24474;48.906;8.808;2022-08-07T03:22:07;14.30;81.60
38726;DHT22;24474;48.906;8.808;2022-08-07T03:24:34;14.20;81.70
38726;DHT22;24474;48.906;8.808;2022-08-07T03:27:02;14.20;81.70
38726;DHT22;24474;48.906;8.808;2022-08-07T03:29:50;14.20;82.00
38726;DHT22;24474;48.906;8.808;2022-08-07T03:32:37;14.20;82.20
38726;DHT22;24474;48.906;8.808;2022-08-07T03:35:06;14.20;82.30
38726;DHT22;24474;48.906;8.808;2022-08-07T03:37:35;14.20;82.40
38726;DHT22;24474;48.906;8.808;2022-08-07T03:40:04;14.10;82.50
38726;DHT22;24474;48.906;8.808;2022-08-07T03:42:33;14.10;82.70
38726;DHT22;24474;48.906;8.808;2022-08-07T03:45:00;14.10;82.80
38726;DHT22;24474;48.906;8.808;2022-08-07T03:47:28;14.10;82.90
38726;DHT22;24474;48.906;8.808;2022-08-07T03:49:56;14.10;83.00
38726;DHT22;24474;48.906;8.808;2022-08-07T03:52:24;14.10;83.10
38726;DHT22;24474;48.906;8.808;2022-08-07T03:54:51;14.00;83.10
38726;DHT22;24474;48.906;8.808;2022-08-07T03:57:21;14.00;83.10
38726;DHT22;24474;48.906;8.808;2022-08-07T03:59:47;14.00;83.20
38726;DHT22;24474;48.906;8.808;2022-08-07T04:02:13;14.00;83.30
38726;DHT22;24474;48.906;8.808;2022-08-07T04:04:41;14.00;83.40
38726;DHT22;24474;48.906;8.808;2022-08-07T04:07:09;14.00;83.40
38726;DHT22;24474;48.906;8.808;2022-08-07T04:09:36;14.00;83.40
38726;DHT22;24474;48.906;8.808;2022-08-07T04:12:05;14.00;83.60
38726;DHT22;24474;48.906;8.808;2022-08-07T04:14:32;13.90;83.60
38726;DHT22;24474;48.906;8.808;2022-08-07T04:16:59;13.90;83.70
38726;DHT22;24474;48.906;8.808;2022-08-07T04:19:25;13.90;83.90
38726;DHT22;24474;48.906;8.808;2022-08-07T04:21:52;13.90;84.00
38726;DHT22;24474;48.906;8.808;2022-08-07T04:24:20;13.90;84.20
38726;DHT22;24474;48.906;8.808;2022-08-07T04:26:47;13.90;84.20
38726;DHT22;24474;48.906;8.808;2022-08-07T04:29:13;13.90;84.40
38726;DHT22;24474;48.906;8.808;2022-08-07T04:31:40;13.80;84.30
38726;DHT22;24474;48.906;8.808;2022-08-07T04:34:07;13.80;84.60
38726;DHT22;24474;48.906;8.808;2022-08-07T04:36:34;13.90;84.60
38726;DHT22;24474;48.906;8.808;2022-08-07T04:39:01;13.80;84.60
38726;DHT22;24474;48.906;8.808;2022-08-07T04:41:27;13.90;84.90
38726;DHT22;24474;48.906;8.808;2022-08-07T04:43:55;13.90;84.90
38726;DHT22;24474;48.906;8.808;2022-08-07T05:05:54;14.10;85.80
38726;DHT22;24474;48.906;8.808;2022-08-07T05:08:32;14.10;86.10
38726;DHT22;24474;48.906;8.808;2022-08-07T05:11:15;14.20;85.80
38726;DHT22;24474;48.906;8.808;2022-08-07T05:13:58;14.30;86.00
38726;DHT22;24474;48.906;8.808;2022-08-07T05:16:29;14.30;85.80
38726;DHT22;24474;48.906;8.808;2022-08-07T05:19:02;14.30;85.70
38726;DHT22;24474;48.906;8.808;2022-08-07T05:21:31;14.40;86.10
38726;DHT22;24474;48.906;8.808;2022-08-07T05:24:01;14.40;86.00
38726;DHT22;24474;48.906;8.808;2022-08-07T05:26:31;14.60;85.70
38726;DHT22;24474;48.906;8.808;2022-08-07T05:29:02;14.60;85.40
38726;DHT22;24474;48.906;8.808;2022-08-07T05:31:36;14.70;85.30
38726;DHT22;24474;48.906;8.808;2022-08-07T05:34:08;14.80;85.40
38726;DHT22;24474;48.906;8.808;2022-08-07T05:36:37;15.30;84.60
38726;DHT22;24474;48.906;8.808;2022-08-07T05:39:06;16.50;81.70
38726;DHT22;24474;48.906;8.808;2022-08-07T05:41:33;17.80;78.40
38726;DHT22;24474;48.906;8.808;2022-08-07T05:44:00;18.80;75.80
38726;DHT22;24474;48.906;8.808;2022-08-07T05:46:26;19.60;74.10
38726;DHT22;24474;48.906;8.808;2022-08-07T05:48:52;20.10;72.30
38726;DHT22;24474;48.906;8.808;2022-08-07T05:51:20;20.50;71.40
38726;DHT22;24474;48.906;8.808;2022-08-07T05:53:48;20.70;70.70
38726;DHT22;24474;48.906;8.808;2022-08-07T05:56:18;20.60;71.20
38726;DHT22;24474;48.906;8.808;2022-08-07T05:58:44;19.90;72.60
38726;DHT22;24474;48.906;8.808;2022-08-07T06:01:13;18.90;75.10
38726;DHT22;24474;48.906;8.808;2022-08-07T06:03:43;18.10;77.80
38726;DHT22;24474;48.906;8.808;2022-08-07T06:06:10;17.50;79.00
38726;DHT22;24474;48.906;8.808;2022-08-07T06:08:39;17.20;80.50
38726;DHT22;24474;48.906;8.808;2022-08-07T06:11:07;17.00;81.20
38726;DHT22;24474;48.906;8.808;2022-08-07T06:13:42;16.90;82.00
38726;DHT22;24474;48.906;8.808;2022-08-07T06:16:09;16.90;82.90
38726;DHT22;24474;48.906;8.808;2022-08-07T06:18:35;16.90;83.80
38726;DHT22;24474;48.906;8.808;2022-08-07T06:21:03;16.90;83.80
38726;DHT22;24474;48.906;8.808;2022-08-07T06:23:29;16.90;83.90
38726;DHT22;24474;48.906;8.808;2022-08-07T06:25:56;16.90;84.80
38726;DHT22;24474;48.906;8.808;2022-08-07T06:28:22;17.00;85.10
38726;DHT22;24474;48.906;8.808;2022-08-07T06:30:48;17.00;85.00
38726;DHT22;24474;48.906;8.808;2022-08-07T06:33:14;17.00;85.50
38726;DHT22;24474;48.906;8.808;2022-08-07T06:35:40;17.00;85.30
38726;DHT22;24474;48.906;8.808;2022-08-07T06:38:06;17.00;85.20
38726;DHT22;24474;48.906;8.808;2022-08-07T06:40:47;17.10;85.90
38726;DHT22;24474;48.906;8.808;2022-08-07T06:43:15;17.20;86.20
38726;DHT22;24474;48.906;8.808;2022-08-07T06:45:43;17.20;86.20
38726;DHT22;24474;48.906;8.808;2022-08-07T06:48:10;17.30;86.30
38726;DHT22;24474;48.906;8.808;2022-08-07T06:50:42;17.30;86.40
38726;DHT22;24474;48.906;8.808;2022-08-07T06:53:08;17.40;86.50
38726;DHT22;24474;48.906;8.808;2022-08-07T06:55:35;17.40;86.10
38726;DHT22;24474;48.906;8.808;2022-08-07T06:58:08;17.50;86.30
38726;DHT22;24474;48.906;8.808;2022-08-07T07:00:38;17.50;87.80
38726;DHT22;24474;48.906;8.808;2022-08-07T07:03:05;17.60;87.80
38726;DHT22;24474;48.906;8.808;2022-08-07T07:05:33;17.70;87.30
38726;DHT22;24474;48.906;8.808;2022-08-07T07:07:59;17.70;86.70
38726;DHT22;24474;48.906;8.808;2022-08-07T07:10:33;17.80;87.00
38726;DHT22;24474;48.906;8.808;2022-08-07T07:15:43;17.90;87.80
38726;DHT22;24474;48.906;8.808;2022-08-07T07:18:30;18.00;87.70
38726;DHT22;24474;48.906;8.808;2022-08-07T07:21:15;18.00;87.00
38726;DHT22;24474;48.906;8.808;2022-08-07T07:23:42;18.10;87.30
38726;DHT22;24474;48.906;8.808;2022-08-07T07:26:13;18.20;87.50
38726;DHT22;24474;48.906;8.808;2022-08-07T07:28:47;18.30;87.80
38726;DHT22;24474;48.906;8.808;2022-08-07T07:31:26;18.40;87.30
38726;DHT22;24474;48.906;8.808;2022-08-07T07:34:07;18.40;87.70
38726;DHT22;24474;48.906;8.808;2022-08-07T07:36:37;18.50;88.00
38726;DHT22;24474;48.906;8.808;2022-08-07T07:39:05;18.50;88.50
38726;DHT22;24474;48.906;8.808;2022-08-07T07:41:34;18.60;87.70
38726;DHT22;24474;48.906;8.808;2022-08-07T07:44:01;18.70;88.60
38726;DHT22;24474;48.906;8.808;2022-08-07T07:46:35;18.70;88.50
38726;DHT22;24474;48.906;8.808;2022-08-07T07:49:02;18.80;88.00
38726;DHT22;24474;48.906;8.808;2022-08-07T07:51:32;19.00;87.40
38726;DHT22;24474;48.906;8.808;2022-08-07T07:54:00;19.00;87.60
38726;DHT22;24474;48.906;8.808;2022-08-07T07:56:30;19.10;87.60
38726;DHT22;24474;48.906;8.808;2022-08-07T07:59:01;19.20;87.40
38726;DHT22;24474;48.906;8.808;2022-08-07T08:01:29;19.30;87.80
38726;DHT22;24474;48.906;8.808;2022-08-07T08:03:59;19.30;87.10
38726;DHT22;24474;48.906;8.808;2022-08-07T08:06:25;19.30;86.00
38726;DHT22;24474;48.906;8.808;2022-08-07T08:08:57;19.40;85.60
38726;DHT22;24474;48.906;8.808;2022-08-07T08:11:25;19.40;85.30
38726;DHT22;24474;48.906;8.808;2022-08-07T08:13:50;19.50;85.70
38726;DHT22;24474;48.906;8.808;2022-08-07T08:16:19;19.50;85.30
38726;DHT22;24474;48.906;8.808;2022-08-07T08:18:47;19.60;84.20
38726;DHT22;24474;48.906;8.808;2022-08-07T08:21:16;19.60;84.80
38726;DHT22;24474;48.906;8.808;2022-08-07T08:24:03;19.70;85.00
38726;DHT22;24474;48.906;8.808;2022-08-07T08:26:50;19.70;85.20
38726;DHT22;24474;48.906;8.808;2022-08-07T08:29:35;19.80;84.70
38726;DHT22;24474;48.906;8.808;2022-08-07T08:32:20;19.90;84.20
38726;DHT22;24474;48.906;8.808;2022-08-07T08:34:47;19.90;84.00
38726;DHT22;24474;48.906;8.808;2022-08-07T08:37:15;20.00;83.70
38726;DHT22;24474;48.906;8.808;2022-08-07T08:39:46;20.00;83.60
38726;DHT22;24474;48.906;8.808;2022-08-07T08:42:51;20.10;82.80
38726;DHT22;24474;48.906;8.808;2022-08-07T08:45:43;20.30;82.70
38726;DHT22;24474;48.906;8.808;2022-08-07T08:50:49;20.40;82.30
38726;DHT22;24474;48.906;8.808;2022-08-07T08:53:44;20.50;81.60
38726;DHT22;24474;48.906;8.808;2022-08-07T08:56:26;20.50;82.10
38726;DHT22;24474;48.906;8.808;2022-08-07T08:59:04;20.60;80.40
38726;DHT22;24474;48.906;8.808;2022-08-07T09:01:59;20.70;80.40
38726;DHT22;24474;48.906;8.808;2022-08-07T09:07:56;20.80;80.60
38726;DHT22;24474;48.906;8.808;2022-08-07T09:13:04;21.00;78.50
38726;DHT22;24474;48.906;8.808;2022-08-07T09:16:15;21.10;77.60
38726;DHT22;24474;48.906;8.808;2022-08-07T09:22:45;21.30;77.80
38726;DHT22;24474;48.906;8.808;2022-08-07T09:25:23;21.30;78.30
38726;DHT22;24474;48.906;8.808;2022-08-07T09:28:02;21.50;77.00
38726;DHT22;24474;48.906;8.808;2022-08-07T09:36:22;21.70;74.80
38726;DHT22;24474;48.906;8.808;2022-08-07T09:41:50;21.80;74.90
38726;DHT22;24474;48.906;8.808;2022-08-07T09:53:04;21.80;73.80
38726;DHT22;24474;48.906;8.808;2022-08-07T10:01:18;21.90;73.40
38726;DHT22;24474;48.906;8.808;2022-08-07T10:18:19;22.70;66.10
38726;DHT22;24474;48.906;8.808;2022-08-07T10:23:16;22.80;68.60
38726;DHT22;24474;48.906;8.808;2022-08-07T10:26:08;22.70;69.00
38726;DHT22;24474;48.906;8.808;2022-08-07T10:40:07;22.90;65.60
38726;DHT22;24474;48.906;8.808;2022-08-07T10:45:34;23.00;64.70
38726;DHT22;24474;48.906;8.808;2022-08-07T10:50:53;23.20;62.80
38726;DHT22;24474;48.906;8.808;2022-08-07T10:53:26;23.20;64.10
38726;DHT22;24474;48.906;8.808;2022-08-07T10:56:10;23.20;63.10
38726;DHT22;24474;48.906;8.808;2022-08-07T10:58:54;23.10;62.90
38726;DHT22;24474;48.906;8.808;2022-08-07T11:04:13;23.20;63.20
38726;DHT22;24474;48.906;8.808;2022-08-07T11:09:39;23.30;63.10
38726;DHT22;24474;48.906;8.808;2022-08-07T11:12:22;23.50;62.50
38726;DHT22;24474;48.906;8.808;2022-08-07T11:14:57;23.50;62.40
38726;DHT22;24474;48.906;8.808;2022-08-07T11:17:48;23.50;60.70
38726;DHT22;24474;48.906;8.808;2022-08-07T11:20:41;23.40;61.70
38726;DHT22;24474;48.906;8.808;2022-08-07T11:23:56;23.40;60.70
38726;DHT22;24474;48.906;8.808;2022-08-07T11:26:43;23.50;61.80
38726;DHT22;24474;48.906;8.808;2022-08-07T11:30:02;23.60;61.60
38726;DHT22;24474;48.906;8.808;2022-08-07T11:32:34;23.70;60.80
38726;DHT22;24474;48.906;8.808;2022-08-07T11:35:22;23.70;60.70
38726;DHT22;24474;48.906;8.808;2022-08-07T11:41:10;23.90;59.50
38726;DHT22;24474;48.906;8.808;2022-08-07T11:43:57;23.90;60.20
38726;DHT22;24474;48.906;8.808;2022-08-07T11:55:25;24.00;58.70
38726;DHT22;24474;48.906;8.808;2022-08-07T12:03:38;24.00;59.10
38726;DHT22;24474;48.906;8.808;2022-08-07T12:12:11;24.20;55.80
38726;DHT22;24474;48.906;8.808;2022-08-07T12:17:12;24.00;56.30
38726;DHT22;24474;48.906;8.808;2022-08-07T12:19:57;24.20;57.60
38726;DHT22;24474;48.906;8.808;2022-08-07T12:22:45;24.30;57.40
38726;DHT22;24474;48.906;8.808;2022-08-07T12:25:29;24.30;57.00
38726;DHT22;24474;48.906;8.808;2022-08-07T12:31:21;24.30;57.50
38726;DHT22;24474;48.906;8.808;2022-08-07T12:33:54;24.50;56.50
38726;DHT22;24474;48.906;8.808;2022-08-07T12:36:25;24.50;57.20
38726;DHT22;24474;48.906;8.808;2022-08-07T12:39:02;24.50;56.50
38726;DHT22;24474;48.906;8.808;2022-08-07T12:41:33;24.40;56.30
38726;DHT22;24474;48.906;8.808;2022-08-07T12:44:04;24.50;57.30
38726;DHT22;24474;48.906;8.808;2022-08-07T12:50:25;24.50;56.80
38726;DHT22;24474;48.906;8.808;2022-08-07T12:55:49;24.70;57.00
38726;DHT22;24474;48.906;8.808;2022-08-07T12:58:18;24.80;55.50
38726;DHT22;24474;48.906;8.808;2022-08-07T13:01:07;24.80;55.10
38726;DHT22;24474;48.906;8.808;2022-08-07T13:06:58;24.80;55.30
38726;DHT22;24474;48.906;8.808;2022-08-07T13:10:06;24.80;55.00
38726;DHT22;24474;48.906;8.808;2022-08-07T13:12:53;24.80;55.50
38726;DHT22;24474;48.906;8.808;2022-08-07T13:18:33;24.80;55.40
38726;DHT22;24474;48.906;8.808;2022-08-07T13:21:25;24.90;55.60
38726;DHT22;24474;48.906;8.808;2022-08-07T13:30:04;25.00;54.70
38726;DHT22;24474;48.906;8.808;2022-08-07T13:33:10;25.00;56.20
38726;DHT22;24474;48.906;8.808;2022-08-07T13:35:46;25.10;55.70
38726;DHT22;24474;48.906;8.808;2022-08-07T13:38:19;25.20;55.50
38726;DHT22;24474;48.906;8.808;2022-08-07T13:43:44;25.30;55.70
38726;DHT22;24474;48.906;8.808;2022-08-07T13:46:13;25.30;55.70
38726;DHT22;24474;48.906;8.808;2022-08-07T13:48:47;25.30;55.20
38726;DHT22;24474;48.906;8.808;2022-08-07T13:51:16;25.30;55.10
38726;DHT22;24474;48.906;8.808;2022-08-07T13:53:50;25.30;54.70
38726;DHT22;24474;48.906;8.808;2022-08-07T13:56:22;25.30;55.10
38726;DHT22;24474;48.906;8.808;2022-08-07T13:58:52;25.30;54.90
38726;DHT22;24474;48.906;8.808;2022-08-07T14:01:42;25.40;54.40
38726;DHT22;24474;48.906;8.808;2022-08-07T14:04:15;25.40;54.40
38726;DHT22;24474;48.906;8.808;2022-08-07T14:06:47;25.30;54.60
38726;DHT22;24474;48.906;8.808;2022-08-07T14:09:27;25.30;54.30
38726;DHT22;24474;48.906;8.808;2022-08-07T14:11:58;25.30;55.00
38726;DHT22;24474;48.906;8.808;2022-08-07T14:14:31;25.30;54.80
38726;DHT22;24474;48.906;8.808;2022-08-07T14:17:00;25.30;54.90
38726;DHT22;24474;48.906;8.808;2022-08-07T14:19:43;25.40;54.40
38726;DHT22;24474;48.906;8.808;2022-08-07T14:22:10;25.50;54.00
38726;DHT22;24474;48.906;8.808;2022-08-07T14:24:41;25.50;54.40
38726;DHT22;24474;48.906;8.808;2022-08-07T14:27:12;25.50;55.60
38726;DHT22;24474;48.906;8.808;2022-08-07T14:29:51;25.60;54.50
38726;DHT22;24474;48.906;8.808;2022-08-07T14:32:18;25.60;53.70
38726;DHT22;24474;48.906;8.808;2022-08-07T14:34:45;25.60;53.70
38726;DHT22;24474;48.906;8.808;2022-08-07T14:37:15;25.60;53.70
38726;DHT22;24474;48.906;8.808;2022-08-07T14:39:43;25.60;54.50
38726;DHT22;24474;48.906;8.808;2022-08-07T14:42:12;25.60;53.80
38726;DHT22;24474;48.906;8.808;2022-08-07T14:44:45;25.60;54.60
38726;DHT22;24474;48.906;8.808;2022-08-07T14:47:18;25.70;53.50
38726;DHT22;24474;48.906;8.808;2022-08-07T14:49:47;25.70;53.50
38726;DHT22;24474;48.906;8.808;2022-08-07T14:52:13;25.70;53.40
38726;DHT22;24474;48.906;8.808;2022-08-07T14:54:42;25.70;53.20
38726;DHT22;24474;48.906;8.808;2022-08-07T14:57:11;25.70;53.30
38726;DHT22;24474;48.906;8.808;2022-08-07T14:59:40;25.70;53.40
38726;DHT22;24474;48.906;8.808;2022-08-07T15:02:14;25.70;53.00
38726;DHT22;24474;48.906;8.808;2022-08-07T15:04:43;25.70;53.00
38726;DHT22;24474;48.906;8.808;2022-08-07T15:07:18;25.70;53.00
38726;DHT22;24474;48.906;8.808;2022-08-07T15:09:47;25.70;53.30
38726;DHT22;24474;48.906;8.808;2022-08-07T15:12:28;25.70;53.20
38726;DHT22;24474;48.906;8.808;2022-08-07T15:15:04;25.80;53.30
38726;DHT22;24474;48.906;8.808;2022-08-07T15:17:41;25.80;52.40
38726;DHT22;24474;48.906;8.808;2022-08-07T15:20:12;25.80;53.20
38726;DHT22;24474;48.906;8.808;2022-08-07T15:22:48;25.80;52.80
38726;DHT22;24474;48.906;8.808;2022-08-07T15:25:25;25.80;52.50
38726;DHT22;24474;48.906;8.808;2022-08-07T15:27:59;25.80;53.80
38726;DHT22;24474;48.906;8.808;2022-08-07T15:30:26;25.80;52.60
38726;DHT22;24474;48.906;8.808;2022-08-07T15:32:53;25.90;52.50
38726;DHT22;24474;48.906;8.808;2022-08-07T15:35:22;25.90;52.70
38726;DHT22;24474;48.906;8.808;2022-08-07T15:37:58;25.90;52.60
38726;DHT22;24474;48.906;8.808;2022-08-07T15:40:33;25.90;52.60
38726;DHT22;24474;48.906;8.808;2022-08-07T15:43:15;25.90;52.60
38726;DHT22;24474;48.906;8.808;2022-08-07T15:45:45;26.00;53.50
38726;DHT22;24474;48.906;8.808;2022-08-07T15:48:24;25.90;51.80
38726;DHT22;24474;48.906;8.808;2022-08-07T15:50:53;26.00;52.60
38726;DHT22;24474;48.906;8.808;2022-08-07T15:53:41;26.00;52.30
38726;DHT22;24474;48.906;8.808;2022-08-07T15:56:09;26.00;52.90
38726;DHT22;24474;48.906;8.808;2022-08-07T16:01:26;26.10;53.10
38726;DHT22;24474;48.906;8.808;2022-08-07T16:03:55;26.10;52.10
38726;DHT22;24474;48.906;8.808;2022-08-07T16:09:23;26.10;52.00
38726;DHT22;24474;48.906;8.808;2022-08-07T16:12:12;26.10;51.50
38726;DHT22;24474;48.906;8.808;2022-08-07T16:26:41;28.00;50.20
38726;DHT22;24474;48.906;8.808;2022-08-07T16:33:00;27.80;50.00
38726;DHT22;24474;48.906;8.808;2022-08-07T16:35:36;27.30;50.30
38726;DHT22;24474;48.906;8.808;2022-08-07T16:41:38;26.90;50.60
38726;DHT22;24474;48.906;8.808;2022-08-07T16:44:36;26.70;50.70
38726;DHT22;24474;48.906;8.808;2022-08-07T16:55:59;26.30;50.50
38726;DHT22;24474;48.906;8.808;2022-08-07T17:01:34;26.20;51.10
38726;DHT22;24474;48.906;8.808;2022-08-07T17:07:08;26.10;51.30
38726;DHT22;24474;48.906;8.808;2022-08-07T17:12:23;26.10;51.80
38726;DHT22;24474;48.906;8.808;2022-08-07T17:20:36;25.90;51.80
38726;DHT22;24474;48.906;8.808;2022-08-07T17:23:24;25.90;52.00
38726;DHT22;24474;48.906;8.808;2022-08-07T17:26:16;25.80;52.20
38726;DHT22;24474;48.906;8.808;2022-08-07T17:34:27;25.70;52.50
38726;DHT22;24474;48.906;8.808;2022-08-07T17:37:00;25.60;52.80
38726;DHT22;24474;48.906;8.808;2022-08-07T17:42:47;25.50;53.20
38726;DHT22;24474;48.906;8.808;2022-08-07T17:45:23;25.50;53.20
38726;DHT22;24474;48.906;8.808;2022-08-07T17:48:19;25.40;54.00
38726;DHT22;24474;48.906;8.808;2022-08-07T17:53:48;25.30;53.90
38726;DHT22;24474;48.906;8.808;2022-08-07T17:56:47;25.20;54.10
38726;DHT22;24474;48.906;8.808;2022-08-07T17:59:34;25.20;54.30
38726;DHT22;24474;48.906;8.808;2022-08-07T18:02:26;25.10;53.70
38726;DHT22;24474;48.906;8.808;2022-08-07T18:07:57;25.00;54.70
38726;DHT22;24474;48.906;8.808;2022-08-07T18:18:56;24.80;56.70
38726;DHT22;24474;48.906;8.808;2022-08-07T18:21:41;24.70;55.30
38726;DHT22;24474;48.906;8.808;2022-08-07T18:24:34;24.60;56.90
38726;DHT22;24474;48.906;8.808;2022-08-07T18:30:10;24.40;60.10
38726;DHT22;24474;48.906;8.808;2022-08-07T18:45:12;24.10;58.50
38726;DHT22;24474;48.906;8.808;2022-08-07T18:47:56;24.00;60.30
38726;DHT22;24474;48.906;8.808;2022-08-07T19:05:50;23.50;58.00
38726;DHT22;24474;48.906;8.808;2022-08-07T19:11:18;23.40;59.40
38726;DHT22;24474;48.906;8.808;2022-08-07T19:14:05;23.30;59.10
38726;DHT22;24474;48.906;8.808;2022-08-07T19:16:39;23.20;60.20
38726;DHT22;24474;48.906;8.808;2022-08-07T19:19:22;23.10;59.20
38726;DHT22;24474;48.906;8.808;2022-08-07T19:24:48;22.90;62.60
38726;DHT22;24474;48.906;8.808;2022-08-07T19:27:18;22.80;60.90
38726;DHT22;24474;48.906;8.808;2022-08-07T19:29:53;22.70;62.30
38726;DHT22;24474;48.906;8.808;2022-08-07T19:32:24;22.70;61.40
38726;DHT22;24474;48.906;8.808;2022-08-07T19:35:11;22.60;62.80
38726;DHT22;24474;48.906;8.808;2022-08-07T19:37:40;22.50;63.50
38726;DHT22;24474;48.906;8.808;2022-08-07T19:40:09;22.40;63.30
38726;DHT22;24474;48.906;8.808;2022-08-07T19:42:39;22.30;63.10
38726;DHT22;24474;48.906;8.808;2022-08-07T19:45:19;22.30;63.10
38726;DHT22;24474;48.906;8.808;2022-08-07T19:47:51;22.20;64.30
38726;DHT22;24474;48.906;8.808;2022-08-07T19:50:20;22.20;64.60
38726;DHT22;24474;48.906;8.808;2022-08-07T19:52:51;22.10;64.10
38726;DHT22;24474;48.906;8.808;2022-08-07T19:55:22;22.10;64.00
38726;DHT22;24474;48.906;8.808;2022-08-07T19:57:53;22.00;64.00
38726;DHT22;24474;48.906;8.808;2022-08-07T20:00:24;21.90;63.70
38726;DHT22;24474;48.906;8.808;2022-08-07T20:03:14;21.80;64.00
38726;DHT22;24474;48.906;8.808;2022-08-07T20:05:44;21.80;64.10
38726;DHT22;24474;48.906;8.808;2022-08-07T20:08:13;21.70;63.90
38726;DHT22;24474;48.906;8.808;2022-08-07T20:10:46;21.70;64.20
38726;DHT22;24474;48.906;8.808;2022-08-07T20:13:17;21.60;64.00
38726;DHT22;24474;48.906;8.808;2022-08-07T20:15:48;21.50;64.30
38726;DHT22;24474;48.906;8.808;2022-08-07T20:18:18;21.40;65.70
38726;DHT22;24474;48.906;8.808;2022-08-07T20:20:45;21.40;64.70
38726;DHT22;24474;48.906;8.808;2022-08-07T20:23:12;21.30;64.60
38726;DHT22;24474;48.906;8.808;2022-08-07T20:25:40;21.30;64.90